Archival Weather

Tokyo Intl

Tokyo, Japan (RJTT)

Report from: Sunday, March 19, 2023 6:30 AM JST
Current time: Sunday, July 14, 2024 10:21 AM JST

Current weather – Weather history – Daily summaries
Weather forecast

Temperature7.0°C (44.6°F)
Wind chill3.6°C (38.4°F)
Dew point4.0°C (39.2°F)
Winds 11 kts (5.7 m/s, 12.7 mph) North-Northeast (20°)
Visibility6.2 mi. (10 km)
Clouds Few clouds 2,500 ft. (762 m)
Altimeter30.03 in.Hg (1017 mB)
Relative humidity81 %
Density altitude-971 ft. (-296 m)
Remarks No significant changes expected in the next two hours
Flight conditions Visual Meteorological Conditions
Raw dataRJTT 182130Z 02011KT 9999 FEW025 07/04 Q1017 NOSIG RMK 1CU025 A3004
An error has occurred. This application may no longer respond until reloaded. Reload 🗙